createdAt,value
2022-08-26T00:00:47.331Z,101381.44
2022-08-26T00:03:09.437Z,101371.00
2022-08-26T00:05:31.735Z,101375.84
2022-08-26T00:07:54.014Z,101371.00
2022-08-26T00:10:18.724Z,101372.63
2022-08-26T00:12:41.230Z,101368.59
2022-08-26T00:15:06.452Z,101375.03
2022-08-26T00:17:28.326Z,101379.00
2022-08-26T00:19:51.795Z,101378.22
2022-08-26T00:22:20.158Z,101376.22
2022-08-26T00:24:47.890Z,101385.03
2022-08-26T00:27:10.132Z,101379.41
2022-08-26T00:29:34.809Z,101380.22
2022-08-26T00:31:57.710Z,101384.25
2022-08-26T00:34:19.766Z,101381.81
2022-08-26T00:36:41.635Z,101384.63
2022-08-26T00:39:07.379Z,101388.25
2022-08-26T00:41:29.460Z,101381.00
2022-08-26T00:43:51.549Z,101387.03
2022-08-26T00:46:25.601Z,101384.22
2022-08-26T00:48:52.535Z,101383.03
2022-08-26T00:51:23.143Z,101389.03
2022-08-26T00:54:03.955Z,101375.00
2022-08-26T00:56:36.301Z,101380.63
2022-08-26T00:59:06.005Z,101381.41
2022-08-26T01:01:28.418Z,101383.84
2022-08-26T01:03:53.700Z,101385.44
2022-08-26T01:06:17.857Z,101383.41
2022-08-26T01:08:40.822Z,101387.44
2022-08-26T01:11:04.781Z,101386.25
2022-08-26T01:13:30.208Z,101383.00
2022-08-26T01:15:57.413Z,101381.03
2022-08-26T01:18:20.243Z,101384.63
2022-08-26T01:20:57.708Z,101375.81
2022-08-26T01:23:21.719Z,101379.00
2022-08-26T01:25:55.989Z,101380.22
2022-08-26T01:28:31.178Z,101383.03
2022-08-26T01:30:56.512Z,101387.44
2022-08-26T01:33:25.323Z,101379.81
2022-08-26T01:35:48.250Z,101383.41
2022-08-26T01:38:12.779Z,101390.22
2022-08-26T01:40:38.743Z,101392.25
2022-08-26T01:43:03.606Z,101394.63
2022-08-26T01:45:31.543Z,101387.41
2022-08-26T01:47:58.038Z,101391.03
2022-08-26T01:50:31.805Z,101391.78
2022-08-26T01:52:57.344Z,101401.00
2022-08-26T01:55:32.187Z,101395.81
2022-08-26T01:57:57.707Z,101402.19
2022-08-26T02:00:19.578Z,101401.78
2022-08-26T02:02:49.848Z,101403.78
2022-08-26T02:05:18.331Z,101401.00
2022-08-26T02:07:40.770Z,101404.19
2022-08-26T02:10:04.549Z,101396.97
2022-08-26T02:12:27.799Z,101397.34
2022-08-26T02:14:55.732Z,101400.16
2022-08-26T02:17:22.514Z,101394.94
2022-08-26T02:19:49.690Z,101396.94
2022-08-26T02:22:19.756Z,101402.97
2022-08-26T02:24:47.311Z,101396.53
2022-08-26T02:27:09.324Z,101401.34
2022-08-26T02:29:41.573Z,101400.13
2022-08-26T02:32:07.084Z,101398.50
2022-08-26T02:34:33.383Z,101404.91
2022-08-26T02:36:57.520Z,101401.31
2022-08-26T02:39:22.237Z,101398.09
2022-08-26T02:41:46.915Z,101401.31
2022-08-26T02:44:10.000Z,101402.91
2022-08-26T02:46:32.042Z,101391.25
2022-08-26T02:48:54.052Z,101396.88
2022-08-26T02:51:15.954Z,101409.25
2022-08-26T02:53:37.811Z,101399.66
2022-08-26T02:56:01.009Z,101401.25
2022-08-26T02:58:23.470Z,101398.84
2022-08-26T03:00:52.758Z,101401.63
2022-08-26T03:03:15.826Z,101406.88
2022-08-26T03:05:37.844Z,101397.25
2022-08-26T03:08:00.999Z,101400.84
2022-08-26T03:10:23.440Z,101408.88
2022-08-26T03:12:48.638Z,101409.66
2022-08-26T03:15:17.423Z,101410.84
2022-08-26T03:17:40.804Z,101414.06
2022-08-26T03:20:03.396Z,101420.47
2022-08-26T03:22:27.018Z,101410.09
2022-08-26T03:24:49.476Z,101409.31
2022-08-26T03:27:11.417Z,101410.50
2022-08-26T03:29:52.173Z,101416.53
2022-08-26T03:32:16.901Z,101413.69
2022-08-26T03:34:38.797Z,101415.69
2022-08-26T03:37:01.353Z,101410.13
2022-08-26T03:39:23.237Z,101416.53
2022-08-26T03:41:45.274Z,101414.53
2022-08-26T03:44:11.320Z,101422.53
2022-08-26T03:46:34.134Z,101418.91
2022-08-26T03:48:56.013Z,101415.34
2022-08-26T03:51:19.832Z,101414.13
2022-08-26T03:53:42.837Z,101420.94
2022-08-26T03:56:06.533Z,101416.94
2022-08-26T03:58:28.489Z,101415.72
2022-08-26T04:00:55.397Z,101418.06
2022-08-26T04:03:41.462Z,101422.88
2022-08-26T04:06:03.885Z,101424.50
2022-08-26T04:08:26.012Z,101420.53
2022-08-26T04:10:49.992Z,101416.94
2022-08-26T04:13:13.481Z,101412.47
2022-08-26T04:15:35.480Z,101412.47
2022-08-26T04:17:58.347Z,101419.31
2022-08-26T04:20:20.248Z,101416.94
2022-08-26T04:22:42.390Z,101412.94
2022-08-26T04:25:04.785Z,101415.75
2022-08-26T04:27:28.634Z,101413.75
2022-08-26T04:29:54.713Z,101412.94
2022-08-26T04:32:17.679Z,101415.34
2022-08-26T04:34:39.899Z,101418.16
2022-08-26T04:37:01.731Z,101413.75
2022-08-26T04:39:23.703Z,101422.53
2022-08-26T04:41:49.137Z,101420.53
2022-08-26T04:44:14.501Z,101428.50
2022-08-26T04:46:36.671Z,101424.09
2022-08-26T04:49:08.460Z,101418.06
2022-08-26T04:51:30.280Z,101426.13
2022-08-26T04:53:52.900Z,101423.75
2022-08-26T04:56:15.549Z,101426.56
2022-08-26T04:58:37.568Z,101437.38
2022-08-26T05:00:59.869Z,101439.41
2022-08-26T05:03:23.702Z,101435.00
2022-08-26T05:05:49.644Z,101440.22
2022-08-26T05:08:13.719Z,101436.63
2022-08-26T05:10:41.060Z,101444.22
2022-08-26T05:13:03.736Z,101436.97
2022-08-26T05:15:32.587Z,101439.78
2022-08-26T05:17:54.758Z,101444.16
2022-08-26T05:20:16.614Z,101449.78
2022-08-26T05:22:39.468Z,101448.56
2022-08-26T05:25:01.476Z,101451.00
2022-08-26T05:27:23.364Z,101445.00
2022-08-26T05:29:45.360Z,101441.78
2022-08-26T05:32:08.007Z,101445.84
2022-08-26T05:34:30.266Z,101445.03
2022-08-26T05:36:52.888Z,101451.06
2022-08-26T05:39:15.087Z,101454.25
2022-08-26T05:41:41.037Z,101451.03
2022-08-26T05:44:07.379Z,101457.44
2022-08-26T05:46:29.614Z,101457.44
2022-08-26T05:48:51.736Z,101452.63
2022-08-26T05:51:15.162Z,101465.47
2022-08-26T05:53:43.948Z,101453.03
2022-08-26T05:56:17.673Z,101460.66
2022-08-26T05:58:42.254Z,101461.44
2022-08-26T06:01:10.651Z,101461.44
2022-08-26T06:03:37.406Z,101459.41
2022-08-26T06:05:59.700Z,101466.63
2022-08-26T06:08:21.934Z,101467.47
2022-08-26T06:10:56.435Z,101460.66
2022-08-26T06:13:21.846Z,101467.88
2022-08-26T06:15:48.792Z,101467.09
2022-08-26T06:18:10.766Z,101477.50
2022-08-26T06:20:32.802Z,101479.09
2022-08-26T06:23:13.434Z,101481.53
2022-08-26T06:25:39.438Z,101490.34
2022-08-26T06:28:01.243Z,101483.16
2022-08-26T06:30:24.833Z,101483.56
2022-08-26T06:32:49.439Z,101483.16
2022-08-26T06:35:12.419Z,101489.16
2022-08-26T06:37:34.276Z,101496.00
2022-08-26T06:39:56.901Z,101493.59
2022-08-26T06:42:19.602Z,101491.59
2022-08-26T06:44:41.692Z,101496.00
2022-08-26T06:47:07.631Z,101501.59
2022-08-26T06:49:30.341Z,101503.22
2022-08-26T06:51:52.379Z,101496.78
2022-08-26T06:54:14.332Z,101503.22
2022-08-26T06:56:43.890Z,101502.00
2022-08-26T06:59:07.789Z,101496.78
2022-08-26T07:01:34.513Z,101504.03
2022-08-26T07:04:00.467Z,101504.03
2022-08-26T07:06:23.578Z,101507.66
2022-08-26T07:08:50.798Z,101505.25
2022-08-26T07:11:12.797Z,101512.88
2022-08-26T07:13:37.670Z,101508.88
2022-08-26T07:16:03.016Z,101515.25
2022-08-26T07:18:25.091Z,101512.44
2022-08-26T07:20:47.015Z,101510.44
2022-08-26T07:23:11.833Z,101513.63
2022-08-26T07:25:34.352Z,101507.25
2022-08-26T07:27:57.049Z,101507.25
2022-08-26T07:30:18.966Z,101515.63
2022-08-26T07:32:41.863Z,101515.22
2022-08-26T07:35:06.271Z,101515.22
2022-08-26T07:37:28.464Z,101517.66
2022-08-26T07:39:58.119Z,101526.09
2022-08-26T07:42:20.484Z,101522.09
2022-08-26T07:44:43.600Z,101524.91
2022-08-26T07:47:10.540Z,101525.69
2022-08-26T07:49:47.210Z,101530.94
2022-08-26T07:52:14.544Z,101526.53
2022-08-26T07:54:37.740Z,101536.94
2022-08-26T07:56:59.890Z,101535.75
2022-08-26T07:59:21.940Z,101532.16
2022-08-26T08:01:46.758Z,101542.22
2022-08-26T08:04:08.690Z,101543.00
2022-08-26T08:06:33.152Z,101542.22
2022-08-26T08:08:55.854Z,101543.00
2022-08-26T08:11:22.920Z,101533.00
2022-08-26T08:13:44.780Z,101552.25
2022-08-26T08:16:12.495Z,101545.44
2022-08-26T08:18:35.050Z,101550.25
2022-08-26T08:21:10.818Z,101555.03
2022-08-26T08:23:39.702Z,101549.84
2022-08-26T08:26:10.140Z,101553.44
2022-08-26T08:28:32.451Z,101546.22
2022-08-26T08:30:54.397Z,101551.88
2022-08-26T08:33:16.257Z,101558.34
2022-08-26T08:35:42.356Z,101553.53
2022-08-26T08:38:05.241Z,101558.34
2022-08-26T08:40:29.505Z,101559.56
2022-08-26T08:43:10.011Z,101559.97
2022-08-26T08:45:38.372Z,101559.59
2022-08-26T08:48:13.328Z,101558.81
2022-08-26T08:50:47.555Z,101556.41
2022-08-26T08:53:34.859Z,101557.22
2022-08-26T08:56:27.030Z,101557.22
2022-08-26T08:58:59.919Z,101558.81
2022-08-26T09:01:42.106Z,101565.25
2022-08-26T09:04:45.597Z,101563.66
2022-08-26T09:07:36.517Z,101568.06
2022-08-26T09:10:06.575Z,101558.03
2022-08-26T09:12:32.978Z,101558.00
2022-08-26T09:15:14.540Z,101561.25
2022-08-26T09:17:53.277Z,101563.66
2022-08-26T09:20:25.702Z,101569.25
2022-08-26T09:22:47.512Z,101566.84
2022-08-26T09:25:13.865Z,101572.44
2022-08-26T09:27:50.343Z,101568.44
2022-08-26T09:30:26.707Z,101566.03
2022-08-26T09:33:09.999Z,101565.22
2022-08-26T09:35:39.930Z,101568.44
2022-08-26T09:38:19.807Z,101574.44
2022-08-26T09:40:59.018Z,101570.03
2022-08-26T09:43:22.790Z,101572.84
2022-08-26T09:45:50.746Z,101574.81
2022-08-26T09:48:32.327Z,101571.59
2022-08-26T09:51:01.958Z,101570.41
2022-08-26T09:53:31.715Z,101578.03
2022-08-26T09:56:16.141Z,101582.44
2022-08-26T09:58:47.154Z,101573.19
2022-08-26T10:01:36.088Z,101568.38
2022-08-26T10:04:21.792Z,101569.16
2022-08-26T10:07:06.236Z,101573.16
2022-08-26T10:09:40.727Z,101574.38
2022-08-26T10:12:13.206Z,101575.56
2022-08-26T10:17:32.806Z,101578.38
2022-08-26T10:20:22.547Z,101567.50
2022-08-26T10:22:59.930Z,101573.56
2022-08-26T10:25:33.762Z,101575.56
2022-08-26T10:28:46.745Z,101576.75
2022-08-26T10:31:40.169Z,101579.94
2022-08-26T10:34:02.925Z,101575.91
2022-08-26T10:37:10.778Z,101579.09
2022-08-26T10:39:56.944Z,101577.47
2022-08-26T10:42:39.199Z,101581.88
2022-08-26T10:45:19.843Z,101573.09
2022-08-26T10:47:54.183Z,101583.50
2022-08-26T10:50:18.187Z,101573.09
2022-08-26T10:53:32.511Z,101577.47
2022-08-26T10:56:18.867Z,101573.09
2022-08-26T10:59:10.268Z,101573.09
2022-08-26T11:02:07.267Z,101580.72
2022-08-26T11:05:06.467Z,101577.56
2022-08-26T11:07:39.880Z,101587.19
2022-08-26T11:10:17.441Z,101583.59
2022-08-26T11:12:39.281Z,101580.38
2022-08-26T11:15:24.679Z,101571.97
2022-08-26T11:17:47.056Z,101577.13
2022-08-26T11:20:13.590Z,101571.50
2022-08-26T11:22:45.450Z,101579.53
2022-08-26T11:25:30.767Z,101576.75
2022-08-26T11:27:59.849Z,101579.16
2022-08-26T11:30:24.125Z,101574.75
2022-08-26T11:32:56.095Z,101576.31
2022-08-26T11:35:17.972Z,101571.91
2022-08-26T11:37:40.494Z,101573.91
2022-08-26T11:40:25.100Z,101578.31
2022-08-26T11:42:52.336Z,101578.72
2022-08-26T11:45:41.114Z,101583.97
2022-08-26T11:48:30.738Z,101582.00
2022-08-26T11:51:11.313Z,101580.00
2022-08-26T11:53:41.289Z,101580.84
2022-08-26T11:56:34.315Z,101580.84
2022-08-26T11:59:03.047Z,101576.44
2022-08-26T12:01:43.540Z,101581.69
2022-08-26T12:04:10.824Z,101585.28
2022-08-26T12:06:45.688Z,101574.03
2022-08-26T12:09:26.120Z,101567.66
2022-08-26T12:11:48.233Z,101571.63
2022-08-26T12:14:27.698Z,101576.47
2022-08-26T12:16:51.881Z,101577.25
2022-08-26T12:19:32.988Z,101580.44
2022-08-26T12:22:06.561Z,101576.44
2022-08-26T12:24:29.368Z,101578.81
2022-08-26T12:27:15.836Z,101581.59
2022-08-26T12:29:38.172Z,101590.44
2022-08-26T12:32:14.052Z,101592.84
2022-08-26T12:34:36.407Z,101581.63
2022-08-26T12:39:26.846Z,101592.03
2022-08-26T12:41:53.675Z,101589.25
2022-08-26T12:44:59.572Z,101589.28
2022-08-26T12:47:43.038Z,101593.31
2022-08-26T12:50:17.566Z,101603.78
2022-08-26T12:53:01.507Z,101598.94
2022-08-26T12:56:00.313Z,101598.94
2022-08-26T12:58:35.980Z,101601.34
2022-08-26T13:01:22.546Z,101603.34
2022-08-26T13:03:46.696Z,101596.53
2022-08-26T13:06:30.023Z,101595.72
2022-08-26T13:08:56.941Z,101596.53
2022-08-26T13:11:32.459Z,101592.13
2022-08-26T13:14:24.332Z,101592.13
2022-08-26T13:16:47.372Z,101589.31
2022-08-26T13:19:15.295Z,101597.75
2022-08-26T13:21:59.597Z,101595.72
2022-08-26T13:24:57.216Z,101596.47
2022-08-26T13:27:21.975Z,101587.63
2022-08-26T13:29:43.918Z,101591.22
2022-08-26T13:32:07.944Z,101589.22
2022-08-26T13:34:31.473Z,101591.97
2022-08-26T13:36:56.484Z,101588.75
2022-08-26T13:39:18.789Z,101581.16
2022-08-26T13:41:40.995Z,101575.53
2022-08-26T13:44:03.895Z,101575.56
2022-08-26T13:46:27.374Z,101577.19
2022-08-26T13:48:49.243Z,101576.38
2022-08-26T13:51:11.185Z,101576.78
2022-08-26T13:53:33.229Z,101574.75
2022-08-26T13:55:55.096Z,101571.16
2022-08-26T13:58:17.273Z,101570.75
2022-08-26T14:00:41.812Z,101574.81
2022-08-26T14:03:07.287Z,101568.00
2022-08-26T14:05:33.233Z,101575.25
2022-08-26T14:07:57.232Z,101576.47
2022-08-26T14:10:20.569Z,101561.22
2022-08-26T14:12:45.507Z,101569.66
2022-08-26T14:15:08.546Z,101568.06
2022-08-26T14:17:31.245Z,101566.88
2022-08-26T14:19:54.233Z,101564.47
2022-08-26T14:22:19.785Z,101562.06
2022-08-26T14:24:41.780Z,101548.00
2022-08-26T14:27:03.945Z,101540.75
2022-08-26T14:29:26.548Z,101532.31
2022-08-26T14:31:48.609Z,101534.78
2022-08-26T14:34:13.888Z,101527.94
2022-08-26T16:01:55.697Z,101548.72
2022-08-26T16:04:18.746Z,101539.50
2022-08-26T16:06:43.426Z,101543.50
2022-08-26T16:09:07.108Z,101536.31
2022-08-26T16:11:29.372Z,101535.13
2022-08-26T16:13:51.374Z,101528.31
2022-08-26T16:16:13.864Z,101533.53
2022-08-26T16:18:36.921Z,101532.31
2022-08-26T16:21:13.784Z,101525.91
2022-08-26T16:23:36.533Z,101524.31
2022-08-26T16:25:59.099Z,101530.34
2022-08-26T16:28:26.163Z,101539.16
2022-08-26T16:30:49.031Z,101530.34
2022-08-26T16:33:15.306Z,101526.72
2022-08-26T16:38:18.355Z,101521.13
2022-08-26T16:40:40.583Z,101529.91
2022-08-26T16:43:04.604Z,101529.13
2022-08-26T16:45:27.015Z,101529.94
2022-08-26T16:47:50.079Z,101527.09
2022-08-26T16:50:13.156Z,101519.88
2022-08-26T16:52:39.778Z,101523.06
2022-08-26T16:55:01.935Z,101521.03
2022-08-26T16:57:25.450Z,101534.28
2022-08-26T16:59:47.597Z,101521.84
2022-08-26T17:02:11.888Z,101535.41
2022-08-26T17:04:33.923Z,101543.81
2022-08-26T17:06:55.805Z,101533.00
2022-08-26T17:09:17.823Z,101534.97
2022-08-26T17:11:39.900Z,101539.75
2022-08-26T17:14:01.973Z,101535.34
2022-08-26T17:16:26.890Z,101538.94
2022-08-26T17:18:49.153Z,101546.97
2022-08-26T17:21:13.868Z,101549.34
2022-08-26T17:23:37.581Z,101548.94
2022-08-26T17:25:59.494Z,101552.94
2022-08-26T17:28:21.418Z,101554.56
2022-08-26T17:30:44.297Z,101556.94
2022-08-26T17:33:10.737Z,101557.31
2022-08-26T17:35:33.600Z,101563.34
2022-08-26T17:37:56.589Z,101552.94
2022-08-26T17:40:22.193Z,101549.72
2022-08-26T17:42:45.839Z,101564.56
2022-08-26T17:45:09.927Z,101560.53
2022-08-26T17:47:32.900Z,101560.53
2022-08-26T17:49:54.812Z,101558.53
2022-08-26T17:52:16.749Z,101576.97
2022-08-26T17:54:38.671Z,101573.75
2022-08-26T17:57:00.528Z,101573.31
2022-08-26T17:59:23.333Z,101573.31
2022-08-26T18:01:54.653Z,101567.25
2022-08-26T18:04:16.743Z,101566.44
2022-08-26T18:06:39.379Z,101570.44
2022-08-26T18:09:01.286Z,101574.81
2022-08-26T18:11:24.507Z,101579.59
2022-08-26T18:13:47.905Z,101578.00
2022-08-26T18:16:11.213Z,101576.34
2022-08-26T18:18:33.947Z,101577.53
2022-08-26T18:21:01.701Z,101582.25
2022-08-26T18:23:24.604Z,101581.44
2022-08-26T18:25:48.611Z,101588.66
2022-08-26T18:28:10.807Z,101597.38
2022-08-26T18:30:32.895Z,101588.53
2022-08-26T18:32:54.780Z,101597.72
2022-08-26T18:35:17.119Z,101610.13
2022-08-26T18:37:40.368Z,101605.28
2022-08-26T18:40:02.535Z,101595.25
2022-08-26T18:42:26.789Z,101603.63
2022-08-26T18:44:51.145Z,101610.81
2022-08-26T18:47:13.159Z,101604.41
2022-08-26T18:49:35.297Z,101609.97
2022-08-26T18:51:57.183Z,101613.94
2022-08-26T18:56:47.995Z,101613.91
2022-08-26T18:59:11.520Z,101609.47
2022-08-26T19:01:35.735Z,101612.28
2022-08-26T19:04:00.274Z,101615.44
2022-08-26T19:06:24.161Z,101626.63
2022-08-26T19:08:49.952Z,101616.59
2022-08-26T19:11:14.347Z,101623.00
2022-08-26T19:13:37.518Z,101622.19
2022-08-26T19:15:59.346Z,101619.38
2022-08-26T19:18:21.467Z,101616.13
2022-08-26T19:20:46.832Z,101624.91
2022-08-26T19:23:28.146Z,101626.53
2022-08-26T19:25:53.455Z,101629.69
2022-08-26T19:28:18.472Z,101624.84
2022-08-26T19:30:43.948Z,101626.81
2022-08-26T19:33:07.309Z,101625.50
2022-08-26T19:35:29.152Z,101635.88
2022-08-26T19:37:52.365Z,101634.25
2022-08-26T19:40:14.486Z,101636.19
2022-08-26T19:42:36.716Z,101628.63
2022-08-26T19:45:07.549Z,101636.16
2022-08-26T19:47:39.841Z,101630.94
2022-08-26T19:50:07.660Z,101630.53
2022-08-26T19:52:30.358Z,101640.47
2022-08-26T19:54:52.230Z,101645.25
2022-08-26T19:57:14.296Z,101638.84
2022-08-26T19:59:36.452Z,101641.63
2022-08-26T20:02:01.003Z,101626.78
2022-08-26T20:04:23.620Z,101640.78
2022-08-26T20:06:45.516Z,101646.81
2022-08-26T20:09:10.740Z,101642.38
2022-08-26T20:11:32.832Z,101646.00
2022-08-26T20:13:55.336Z,101641.94
2022-08-26T20:16:18.373Z,101648.38
2022-08-26T20:19:00.670Z,101641.13
2022-08-26T20:21:28.406Z,101641.13
2022-08-26T20:23:51.397Z,101632.31
2022-08-26T20:26:13.269Z,101639.13
2022-08-26T20:28:35.407Z,101633.16
2022-08-26T20:30:57.470Z,101628.72
2022-08-26T20:33:19.636Z,101630.28
2022-08-26T20:35:41.444Z,101633.88
2022-08-26T20:38:03.360Z,101633.47
2022-08-26T20:40:25.467Z,101645.03
2022-08-26T20:42:47.382Z,101653.38
2022-08-26T20:45:10.146Z,101638.22
2022-08-26T20:47:32.196Z,101639.78
2022-08-26T20:49:54.438Z,101636.19
2022-08-26T20:52:16.395Z,101642.94
2022-08-26T20:54:38.512Z,101642.53
2022-08-26T20:57:00.347Z,101644.09
2022-08-26T20:59:22.366Z,101650.47
2022-08-26T21:01:44.780Z,101646.88
2022-08-26T21:04:14.160Z,101653.28
2022-08-26T21:06:36.379Z,101648.88
2022-08-26T21:08:58.361Z,101659.63
2022-08-26T21:11:21.033Z,101650.81
2022-08-26T21:14:03.807Z,101655.25
2022-08-26T21:16:25.672Z,101656.81
2022-08-26T21:18:47.826Z,101653.56
2022-08-26T21:21:10.220Z,101653.56
2022-08-26T21:23:32.154Z,101657.56
2022-08-26T21:25:54.107Z,101655.56
2022-08-26T21:28:16.822Z,101655.13
2022-08-26T21:30:40.662Z,101657.94
2022-08-26T21:33:02.526Z,101651.91
2022-08-26T21:35:24.489Z,101658.69
2022-08-26T21:37:46.535Z,101651.91
2022-08-26T21:40:10.507Z,101647.50
2022-08-26T21:42:35.197Z,101643.09
2022-08-26T21:44:57.464Z,101649.06
2022-08-26T21:47:22.339Z,101645.44
2022-08-26T21:49:44.223Z,101646.22
2022-08-26T21:52:06.734Z,101644.59
2022-08-26T21:54:29.027Z,101642.97
2022-08-26T21:56:50.838Z,101641.38
2022-08-26T21:59:15.597Z,101643.78
2022-08-26T22:01:38.086Z,101647.78
2022-08-26T22:04:05.808Z,101655.72
2022-08-26T22:06:29.681Z,101650.09
2022-08-26T22:08:53.491Z,101655.25
2022-08-26T22:11:15.835Z,101654.03
2022-08-26T22:13:40.938Z,101655.19
2022-08-26T22:16:03.580Z,101660.38
2022-08-26T22:18:28.518Z,101658.72
2022-08-26T22:20:52.745Z,101659.91
2022-08-26T22:23:14.579Z,101669.44
2022-08-26T22:25:37.232Z,101666.22
2022-08-26T22:27:59.685Z,101669.41
2022-08-26T22:30:21.742Z,101667.38
2022-08-26T22:32:45.669Z,101671.34
2022-08-26T22:35:28.253Z,101672.09
2022-08-26T22:37:50.131Z,101668.06
2022-08-26T22:40:13.867Z,101663.28
2022-08-26T22:42:35.822Z,101667.63
2022-08-26T22:44:57.662Z,101665.19
2022-08-26T22:47:19.612Z,101669.94
2022-08-26T22:49:41.490Z,101664.72
2022-08-26T22:52:03.813Z,101675.09
2022-08-26T22:54:25.601Z,101670.66
2022-08-26T22:56:47.644Z,101666.25
2022-08-26T22:59:10.973Z,101669.81
2022-08-26T23:01:41.362Z,101663.84
2022-08-26T23:04:06.401Z,101666.22
2022-08-26T23:06:28.272Z,101665.78
2022-08-26T23:08:50.304Z,101666.16
2022-08-26T23:11:14.969Z,101663.34
2022-08-26T23:13:37.384Z,101668.13
2022-08-26T23:16:02.360Z,101672.50
2022-08-26T23:18:24.147Z,101671.69
2022-08-26T23:20:47.088Z,101666.47
2022-08-26T23:23:09.530Z,101666.03
2022-08-26T23:25:32.504Z,101662.78
2022-08-26T23:27:54.516Z,101661.19
2022-08-26T23:30:24.218Z,101659.56
2022-08-26T23:32:47.296Z,101655.16
2022-08-26T23:35:11.537Z,101661.94
2022-08-26T23:37:40.324Z,101661.09
2022-08-26T23:40:08.237Z,101665.47
2022-08-26T23:42:30.668Z,101658.25
2022-08-26T23:44:52.589Z,101658.25
2022-08-26T23:47:15.430Z,101644.22
2022-08-26T23:49:37.436Z,101644.97
2022-08-26T23:52:17.715Z,101648.53
2022-08-26T23:54:40.545Z,101648.06
2022-08-26T23:57:02.774Z,101655.22
2022-08-26T23:59:25.072Z,101655.16
